Time;durP1;ratioP1;P1;durP2;ratioP2;P2;SDS_P1;SDS_P2;PMS_P1;PMS_P2;Temp;Humidity;BMP_temperature;BMP_pressure;BME280_temperature;BME280_humidity;BME280_pressure;Samples;Min_cycle;Max_cycle;Signal;HPM_P1;HPM_P2
2024/01/01 00:00:54;;;;;;;1999.90;999.90;;;9.50;45.90;;;;;;5013898;28;20203;-73
2024/01/01 00:03:20;;;;;;;1999.90;999.90;;;9.40;43.80;;;;;;5013713;28;20175;-73
2024/01/01 00:05:45;;;;;;;1999.90;999.90;;;9.50;42.70;;;;;;5013943;28;20164;-73
2024/01/01 00:08:11;;;;;;;1999.90;999.90;;;9.40;42.10;;;;;;5013820;28;20175;-73
2024/01/01 00:10:36;;;;;;;1999.90;999.90;;;9.70;41.90;;;;;;5013744;28;20290;-73
2024/01/01 00:13:02;;;;;;;1999.90;999.90;;;9.60;39.80;;;;;;5011612;28;20236;-73
2024/01/01 00:15:28;;;;;;;1999.90;999.90;;;9.50;39.20;;;;;;5011277;28;20183;-74
2024/01/01 00:17:53;;;;;;;1999.90;999.90;;;9.40;38.40;;;;;;5005766;28;20255;-73
2024/01/01 00:20:19;;;;;;;1999.90;999.90;;;9.60;39.50;;;;;;5007113;28;20622;-73
2024/01/01 00:22:47;;;;;;;1999.90;999.90;;;9.80;38.90;;;;;;5006208;28;20163;-73
2024/01/01 00:25:12;;;;;;;1999.90;999.90;;;9.60;39.50;;;;;;5013059;28;20222;-73
2024/01/01 00:27:38;;;;;;;1999.90;999.90;;;9.40;38.90;;;;;;5013594;28;20898;-73
2024/01/01 00:30:04;;;;;;;1999.90;999.90;;;9.30;39.00;;;;;;5012914;28;20206;-73
2024/01/01 00:32:29;;;;;;;1999.90;999.90;;;9.40;41.10;;;;;;5012477;28;20537;-72
2024/01/01 00:34:55;;;;;;;1999.90;999.90;;;9.30;40.40;;;;;;5012550;28;20402;-73
2024/01/01 00:37:21;;;;;;;1999.90;999.90;;;9.10;40.30;;;;;;5012631;28;20638;-73
2024/01/01 00:39:46;;;;;;;1999.90;999.90;;;9.40;40.40;;;;;;5012636;28;20246;-73
2024/01/01 00:42:12;;;;;;;1999.90;999.90;;;9.30;40.20;;;;;;5012374;28;20219;-73
2024/01/01 00:44:38;;;;;;;1999.90;999.90;;;9.30;40.90;;;;;;5012383;28;20644;-73
2024/01/01 00:47:03;;;;;;;1999.90;999.90;;;9.30;41.50;;;;;;5012480;28;20217;-73
2024/01/01 00:49:29;;;;;;;1999.90;999.90;;;9.30;38.60;;;;;;5012352;28;20485;-73
2024/01/01 00:51:55;;;;;;;1999.90;999.90;;;9.50;38.40;;;;;;5012177;28;20206;-73
2024/01/01 00:54:20;;;;;;;1999.90;999.90;;;9.40;38.40;;;;;;5012301;28;20536;-73
2024/01/01 00:56:46;;;;;;;1999.90;999.90;;;9.40;37.70;;;;;;5012228;28;20172;-73
2024/01/01 00:59:12;;;;;;;1999.90;999.90;;;9.40;35.80;;;;;;5012151;28;20275;-73
2024/01/01 01:01:38;;;;;;;1999.90;999.90;;;9.30;35.30;;;;;;5012064;28;20485;-73
2024/01/01 01:04:03;;;;;;;1999.90;999.90;;;9.40;34.90;;;;;;5012131;28;20186;-73
2024/01/01 01:06:29;;;;;;;1999.90;999.90;;;9.50;34.80;;;;;;5012104;28;20805;-73
2024/01/01 01:08:54;;;;;;;1999.90;999.90;;;9.40;51.70;;;;;;5012069;28;20170;-73
2024/01/01 01:11:20;;;;;;;1999.90;999.90;;;9.40;35.20;;;;;;5011826;28;20536;-73
2024/01/01 01:13:46;;;;;;;1999.90;999.90;;;9.60;34.70;;;;;;5011715;28;20186;-73
2024/01/01 01:16:12;;;;;;;1999.90;999.90;;;9.70;34.20;;;;;;5011924;28;20182;-73
2024/01/01 01:18:37;;;;;;;1999.90;999.90;;;9.30;33.30;;;;;;5011961;28;20188;-73
2024/01/01 01:21:03;;;;;;;1999.90;999.90;;;9.50;34.30;;;;;;5011777;28;20210;-73
2024/01/01 01:23:30;;;;;;;1999.90;999.90;;;9.50;33.80;;;;;;5011637;28;20661;-73
2024/01/01 01:25:55;;;;;;;1999.90;999.90;;;9.40;34.20;;;;;;5011714;28;20171;-73
2024/01/01 01:28:23;;;;;;;1999.90;999.90;;;9.50;34.60;;;;;;5011893;28;20398;-73
2024/01/01 01:30:48;;;;;;;1999.90;999.90;;;9.30;34.70;;;;;;4975220;28;1074016;-73
2024/01/01 01:33:14;;;;;;;1999.90;999.90;;;9.50;33.40;;;;;;5012260;28;20446;-73
2024/01/01 01:35:39;;;;;;;1999.90;999.90;;;9.40;34.20;;;;;;5012400;28;20171;-73
2024/01/01 01:38:05;;;;;;;1999.90;999.90;;;9.50;33.10;;;;;;5012524;28;20248;-73
2024/01/01 01:40:30;;;;;;;1999.90;999.90;;;9.60;34.50;;;;;;5012232;28;20242;-73
2024/01/01 01:42:56;;;;;;;1999.90;999.90;;;9.40;34.40;;;;;;5012127;28;20198;-73
2024/01/01 01:45:22;;;;;;;1999.90;999.90;;;9.40;34.60;;;;;;5012393;28;20179;-73
2024/01/01 01:47:48;;;;;;;1999.90;999.90;;;9.60;35.00;;;;;;5012345;28;20262;-74
2024/01/01 01:50:14;;;;;;;1999.90;999.90;;;9.50;36.60;;;;;;5012197;28;20526;-73
2024/01/01 01:52:42;;;;;;;1999.90;999.90;;;9.40;37.10;;;;;;5010758;28;20242;-73
2024/01/01 01:55:08;;;;;;;1999.90;999.90;;;9.30;39.60;;;;;;5012229;28;20418;-73
2024/01/01 01:57:36;;;;;;;1999.90;999.90;;;9.30;44.50;;;;;;5012247;28;20409;-74
2024/01/01 02:00:04;;;;;;;1999.90;999.90;;;9.10;49.60;;;;;;5012042;28;20490;-74
2024/01/01 02:02:35;;;;;;;1999.90;999.90;;;9.00;60.70;;;;;;5011825;28;20409;-74
2024/01/01 02:05:01;;;;;;;1999.90;999.90;;;9.00;78.20;;;;;;5012277;28;20507;-73
2024/01/01 02:07:27;;;;;;;1999.90;999.90;;;8.60;90.80;;;;;;5012210;28;20476;-71
2024/01/01 02:09:53;;;;;;;1999.90;999.90;;;8.40;95.20;;;;;;5011896;28;20890;-73
2024/01/01 02:12:18;;;;;;;1999.90;999.90;;;8.20;99.90;;;;;;5011806;28;20185;-71
2024/01/01 02:14:44;;;;;;;1999.90;999.90;;;8.20;99.90;;;;;;5011961;28;20228;-72
2024/01/01 02:17:09;;;;;;;1999.90;999.90;;;7.80;99.90;;;;;;5012011;28;20188;-72
2024/01/01 02:19:35;;;;;;;1999.90;999.90;;;7.70;99.90;;;;;;5011802;28;20201;-72
2024/01/01 02:22:00;;;;;;;1999.90;999.90;;;7.60;99.90;;;;;;5011710;28;20165;-72
2024/01/01 02:24:26;;;;;;;1999.90;999.90;;;7.50;99.90;;;;;;5012024;28;20240;-72
2024/01/01 02:26:52;;;;;;;1999.90;999.90;;;7.40;99.90;;;;;;5011729;28;20250;-72
2024/01/01 02:29:17;;;;;;;1999.90;999.90;;;7.40;99.90;;;;;;5011768;28;20205;-74
2024/01/01 02:31:44;;;;;;;1999.90;999.90;;;7.40;99.90;;;;;;5011663;28;20211;-72
2024/01/01 02:34:10;;;;;;;1999.90;999.90;;;7.40;99.90;;;;;;5011774;28;20302;-74
2024/01/01 02:36:37;;;;;;;1999.90;999.90;;;7.40;99.90;;;;;;5012005;28;20857;-74
2024/01/01 02:39:05;;;;;;;1999.90;999.90;;;7.40;99.90;;;;;;5011901;28;20181;-75
2024/01/01 02:41:33;;;;;;;1999.90;999.90;;;7.50;99.90;;;;;;5011452;28;20547;-74
2024/01/01 02:43:58;;;;;;;1999.90;999.90;;;7.60;99.90;;;;;;5014277;28;20458;-75
2024/01/01 02:46:24;;;;;;;1999.90;999.90;;;7.60;99.90;;;;;;5015442;28;20782;-74
2024/01/01 02:48:49;;;;;;;1999.90;999.90;;;7.50;99.90;;;;;;5015541;28;20179;-74
2024/01/01 02:51:15;;;;;;;1999.90;999.90;;;7.50;99.90;;;;;;5015683;28;20207;-74
2024/01/01 02:53:41;;;;;;;1999.90;999.90;;;7.60;99.90;;;;;;5015116;28;20180;-74
2024/01/01 02:56:24;;;;;;;1999.90;999.90;;;7.60;99.90;;;;;;5015336;28;20250;-74
2024/01/01 02:58:50;;;;;;;1999.90;999.90;;;7.60;99.90;;;;;;5015242;28;20185;-74
2024/01/01 03:01:16;;;;;;;1999.90;999.90;;;7.70;99.90;;;;;;5015135;28;20492;-72
2024/01/01 03:03:41;;;;;;;1999.90;999.90;;;7.70;99.90;;;;;;5015113;28;20447;-74
2024/01/01 03:06:07;;;;;;;1999.90;999.90;;;7.80;99.90;;;;;;5015172;28;20560;-74
2024/01/01 03:08:36;;;;;;;1999.90;999.90;;;7.80;99.90;;;;;;5015095;28;20409;-74
2024/01/01 03:11:06;;;;;;;1999.90;999.90;;;7.90;99.90;;;;;;5014956;28;20202;-73
2024/01/01 03:13:32;;;;;;;1999.90;999.90;;;8.00;99.90;;;;;;5014749;28;20811;-72
2024/01/01 03:15:59;;;;;;;1999.90;999.90;;;8.00;99.90;;;;;;5014927;28;20417;-73
2024/01/01 03:18:25;;;;;;;1999.90;999.90;;;8.10;99.90;;;;;;5015069;28;20428;-73
2024/01/01 03:20:50;;;;;;;1999.90;999.90;;;8.20;99.90;;;;;;5014700;28;20464;-73
2024/01/01 03:23:16;;;;;;;1999.90;999.90;;;8.20;99.90;;;;;;5014647;28;20550;-73
2024/01/01 03:25:41;;;;;;;1999.90;999.90;;;8.20;99.90;;;;;;5014748;28;20177;-73
2024/01/01 03:28:07;;;;;;;1999.90;999.90;;;8.30;99.90;;;;;;5014686;28;20626;-73
2024/01/01 03:30:33;;;;;;;1999.90;999.90;;;8.20;98.20;;;;;;5014544;28;20326;-73
2024/01/01 03:32:58;;;;;;;1999.90;999.90;;;8.30;99.50;;;;;;5014428;28;20182;-73
2024/01/01 03:35:24;;;;;;;1999.90;999.90;;;8.30;98.40;;;;;;5014547;28;20417;-73
2024/01/01 03:37:49;;;;;;;1999.90;999.90;;;8.30;96.70;;;;;;5014493;28;20223;-73
2024/01/01 03:40:15;;;;;;;1999.90;999.90;;;8.30;95.60;;;;;;5014407;28;20228;-73
2024/01/01 03:42:41;;;;;;;1999.90;999.90;;;8.30;96.10;;;;;;5014203;28;20621;-73
2024/01/01 03:45:08;;;;;;;1999.90;999.90;;;8.30;95.80;;;;;;5014608;28;20174;-72
2024/01/01 03:47:33;;;;;;;1999.90;999.90;;;8.30;96.10;;;;;;5014512;28;20181;-73
2024/01/01 03:49:59;;;;;;;1999.90;999.90;;;8.30;95.70;;;;;;5014247;28;20437;-73
2024/01/01 03:52:25;;;;;;;1999.90;999.90;;;8.30;96.30;;;;;;5014264;28;20547;-73
2024/01/01 03:54:51;;;;;;;1999.90;999.90;;;8.30;94.40;;;;;;5014184;28;20178;-72
2024/01/01 03:57:17;;;;;;;1999.90;999.90;;;8.30;94.70;;;;;;5014140;28;20661;-73
2024/01/01 03:59:42;;;;;;;1999.90;999.90;;;8.40;93.00;;;;;;5013995;28;21166;-73
2024/01/01 04:02:10;;;;;;;1999.90;999.90;;;8.40;93.20;;;;;;5013904;28;20448;-73
2024/01/01 04:04:36;;;;;;;1999.90;999.90;;;8.30;91.50;;;;;;5014140;28;20548;-73
2024/01/01 04:07:02;;;;;;;1999.90;999.90;;;8.40;92.70;;;;;;5014016;28;20939;-73
2024/01/01 04:09:28;;;;;;;1999.90;999.90;;;8.40;91.60;;;;;;5013963;28;20899;-73
2024/01/01 04:11:53;;;;;;;1999.90;999.90;;;8.50;91.70;;;;;;5013646;28;20434;-73
2024/01/01 04:14:19;;;;;;;1999.90;999.90;;;8.50;88.10;;;;;;5013786;28;20202;-73
2024/01/01 04:16:44;;;;;;;1999.90;999.90;;;8.50;90.90;;;;;;5013877;28;20177;-73
2024/01/01 04:19:10;;;;;;;1999.90;999.90;;;8.40;91.10;;;;;;5013766;28;20708;-73
2024/01/01 04:21:39;;;;;;;1999.90;999.90;;;8.40;90.50;;;;;;5013535;28;20284;-73
2024/01/01 04:24:06;;;;;;;1999.90;999.90;;;8.40;90.50;;;;;;5013641;28;20182;-73
2024/01/01 04:26:32;;;;;;;1999.90;999.90;;;8.40;91.30;;;;;;5013552;28;20419;-73
2024/01/01 04:28:57;;;;;;;1999.90;999.90;;;8.40;97.90;;;;;;5013446;28;20408;-72
2024/01/01 04:31:23;;;;;;;1999.90;999.90;;;8.50;88.20;;;;;;5013454;28;20182;-73
2024/01/01 04:33:49;;;;;;;1999.90;999.90;;;8.30;89.90;;;;;;5013444;28;20182;-73
2024/01/01 04:36:14;;;;;;;1999.90;999.90;;;8.40;88.20;;;;;;5013449;28;20451;-73
2024/01/01 04:38:40;;;;;;;1999.90;999.90;;;8.40;88.80;;;;;;5013476;28;20170;-73
2024/01/01 04:41:08;;;;;;;1999.90;999.90;;;8.50;86.70;;;;;;5013163;28;20198;-73
2024/01/01 04:43:38;;;;;;;1999.90;999.90;;;8.50;85.60;;;;;;5013102;28;20178;-73
2024/01/01 04:46:04;;;;;;;1999.90;999.90;;;8.50;81.20;;;;;;5013285;28;20416;-72
2024/01/01 04:48:30;;;;;;;1999.90;999.90;;;8.60;82.90;;;;;;5013275;28;20429;-73
2024/01/01 04:50:55;;;;;;;1999.90;999.90;;;8.50;79.90;;;;;;5013141;28;20276;-73
2024/01/01 04:53:21;;;;;;;1999.90;999.90;;;8.40;79.80;;;;;;5012909;28;20497;-74
2024/01/01 04:55:47;;;;;;;1999.90;999.90;;;8.50;81.30;;;;;;5013016;28;20180;-74
2024/01/01 04:58:12;;;;;;;1999.90;999.90;;;8.50;82.50;;;;;;5013086;28;20630;-74
2024/01/01 05:00:38;;;;;;;1999.90;999.90;;;8.60;85.20;;;;;;5012910;28;20291;-73
2024/01/01 05:03:04;;;;;;;1999.90;999.90;;;8.40;84.10;;;;;;5012778;28;20204;-74
2024/01/01 05:05:29;;;;;;;1999.90;999.90;;;8.50;81.80;;;;;;5012471;28;20166;-74
2024/01/01 05:07:55;;;;;;;1999.90;999.90;;;8.50;85.50;;;;;;5012832;28;20409;-74
2024/01/01 05:10:20;;;;;;;1999.90;999.90;;;8.50;84.10;;;;;;5012763;28;20194;-74
2024/01/01 05:12:46;;;;;;;1999.90;999.90;;;8.50;86.10;;;;;;5012580;28;20358;-73
2024/01/01 05:15:12;;;;;;;1999.90;999.90;;;8.60;86.80;;;;;;5012863;28;20228;-74
2024/01/01 05:17:37;;;;;;;1999.90;999.90;;;8.40;86.50;;;;;;5012757;28;20176;-74
2024/01/01 05:20:04;;;;;;;1999.90;999.90;;;8.30;85.70;;;;;;5012604;28;20202;-73
2024/01/01 05:22:30;;;;;;;1999.90;999.90;;;8.30;83.60;;;;;;5012404;28;20660;-74
2024/01/01 05:24:56;;;;;;;1999.90;999.90;;;8.20;84.60;;;;;;5012599;28;20414;-74
2024/01/01 05:27:22;;;;;;;1999.90;999.90;;;8.30;85.60;;;;;;5012614;28;20519;-74
2024/01/01 05:29:47;;;;;;;1999.90;999.90;;;8.40;82.70;;;;;;5012609;28;20552;-74
2024/01/01 05:32:13;;;;;;;1999.90;999.90;;;8.40;83.10;;;;;;5012315;28;20209;-74
2024/01/01 05:34:40;;;;;;;1999.90;999.90;;;8.50;77.40;;;;;;5012533;28;20174;-74
2024/01/01 05:37:06;;;;;;;1999.90;999.90;;;8.50;78.90;;;;;;5012521;28;20265;-73
2024/01/01 05:39:32;;;;;;;1999.90;999.90;;;8.40;74.80;;;;;;5012346;28;21051;-74
2024/01/01 05:41:57;;;;;;;1999.90;999.90;;;8.50;71.90;;;;;;5011805;28;20182;-74
2024/01/01 05:44:23;;;;;;;1999.90;999.90;;;8.60;74.80;;;;;;5011739;28;20218;-73
2024/01/01 05:46:49;;;;;;;1999.90;999.90;;;8.70;71.10;;;;;;5006651;28;20640;-74
2024/01/01 05:49:15;;;;;;;1999.90;999.90;;;8.60;74.60;;;;;;5009969;28;20198;-74
2024/01/01 05:51:41;;;;;;;1999.90;999.90;;;8.40;89.40;;;;;;5012056;28;20829;-74
2024/01/01 05:54:06;;;;;;;1999.90;999.90;;;8.40;90.90;;;;;;5012154;28;20174;-74
2024/01/01 05:56:32;;;;;;;1999.90;999.90;;;8.30;90.90;;;;;;5012250;28;20173;-73
2024/01/01 05:58:57;;;;;;;1999.90;999.90;;;8.20;89.60;;;;;;5012139;28;20174;-73
2024/01/01 06:01:23;;;;;;;1999.90;999.90;;;8.30;89.40;;;;;;5011890;28;20291;-74
2024/01/01 06:03:48;;;;;;;1999.90;999.90;;;8.30;89.10;;;;;;5012430;28;20216;-74
2024/01/01 06:06:15;;;;;;;1999.90;999.90;;;8.30;91.10;;;;;;5012090;28;20200;-73
2024/01/01 06:08:40;;;;;;;1999.90;999.90;;;8.30;91.50;;;;;;5012069;28;20192;-72
2024/01/01 06:11:06;;;;;;;1999.90;999.90;;;8.40;91.90;;;;;;5012053;28;20951;-73
2024/01/01 06:13:32;;;;;;;1999.90;999.90;;;8.30;91.30;;;;;;5011967;28;20256;-72
2024/01/01 06:15:58;;;;;;;1999.90;999.90;;;8.40;92.10;;;;;;5011966;28;20177;-72
2024/01/01 06:18:25;;;;;;;1999.90;999.90;;;8.50;92.30;;;;;;5013851;28;20174;-72
2024/01/01 06:20:50;;;;;;;1999.90;999.90;;;8.40;92.20;;;;;;5015773;28;20967;-72
2024/01/01 06:23:17;;;;;;;1999.90;999.90;;;8.40;91.10;;;;;;5015742;28;20482;-72
2024/01/01 06:25:42;;;;;;;1999.90;999.90;;;8.50;92.30;;;;;;5016092;28;20168;-72
2024/01/01 06:28:08;;;;;;;1999.90;999.90;;;8.30;91.80;;;;;;5015906;28;20401;-73
2024/01/01 06:30:34;;;;;;;1999.90;999.90;;;8.30;95.20;;;;;;5015634;28;20268;-74
2024/01/01 06:33:02;;;;;;;1999.90;999.90;;;8.30;98.90;;;;;;5015683;28;20178;-73
2024/01/01 06:35:30;;;;;;;1999.90;999.90;;;8.40;99.90;;;;;;5015700;28;20422;-73
2024/01/01 06:37:56;;;;;;;1999.90;999.90;;;8.20;99.90;;;;;;5016033;28;20893;-73
2024/01/01 06:40:22;;;;;;;1999.90;999.90;;;7.90;99.90;;;;;;5015518;28;20491;-73
2024/01/01 06:42:47;;;;;;;1999.90;999.90;;;8.20;99.90;;;;;;5015432;28;20511;-73
2024/01/01 06:45:14;;;;;;;1999.90;999.90;;;8.10;99.90;;;;;;5015542;28;20173;-73
2024/01/01 06:47:39;;;;;;;1999.90;999.90;;;8.20;99.90;;;;;;5015610;28;20175;-73
2024/01/01 06:50:05;;;;;;;1999.90;999.90;;;8.10;99.90;;;;;;5015244;28;20849;-73
2024/01/01 06:52:31;;;;;;;1999.90;999.90;;;8.10;99.90;;;;;;5015195;28;20201;-73
2024/01/01 06:54:57;;;;;;;1999.90;999.90;;;8.10;99.90;;;;;;5015291;28;20494;-73
2024/01/01 06:57:22;;;;;;;1999.90;999.90;;;8.10;99.90;;;;;;5015329;28;20180;-73
2024/01/01 06:59:48;;;;;;;1999.90;999.90;;;8.10;99.90;;;;;;5014227;28;20224;-72
2024/01/01 07:02:13;;;;;;;1999.90;999.90;;;8.10;99.90;;;;;;5014819;28;20178;-73
2024/01/01 07:04:39;;;;;;;1999.90;999.90;;;8.10;99.90;;;;;;5006883;28;20647;-73
2024/01/01 07:07:04;;;;;;;1999.90;999.90;;;8.20;99.90;;;;;;5015061;28;20177;-73
2024/01/01 07:09:30;;;;;;;1999.90;999.90;;;8.40;99.90;;;;;;5015067;28;20196;-73
2024/01/01 07:11:59;;;;;;;1999.90;999.90;;;8.20;99.90;;;;;;5014852;28;20165;-73
2024/01/01 07:14:25;;;;;;;1999.90;999.90;;;8.10;99.90;;;;;;5015016;28;20170;-73
2024/01/01 07:16:54;;;;;;;1999.90;999.90;;;8.10;99.90;;;;;;5015032;28;20455;-72
2024/01/01 07:19:19;;;;;;;1999.90;999.90;;;8.10;99.90;;;;;;5014739;28;20247;-72
2024/01/01 07:21:46;;;;;;;1999.90;999.90;;;8.10;99.90;;;;;;5014629;28;20459;-73
2024/01/01 07:24:12;;;;;;;1999.90;999.90;;;8.10;99.90;;;;;;5014836;28;20177;-72
2024/01/01 07:26:37;;;;;;;1999.90;999.90;;;8.10;99.90;;;;;;5015014;28;20904;-73
2024/01/01 07:29:05;;;;;;;1999.90;999.90;;;8.60;99.90;;;;;;5014182;28;20166;-74
2024/01/01 07:31:31;;;;;;;1999.90;999.90;;;8.00;99.90;;;;;;5014570;28;20188;-73
2024/01/01 07:33:56;;;;;;;1999.90;999.90;;;8.00;99.90;;;;;;5014511;28;20782;-72
2024/01/01 07:36:22;;;;;;;1999.90;999.90;;;8.00;99.90;;;;;;5014596;28;20174;-74
2024/01/01 07:38:48;;;;;;;1999.90;999.90;;;;;;;;;;5014607;28;20184;-74
2024/01/01 07:41:13;;;;;;;1999.90;999.90;;;7.60;99.90;;;;;;5014407;28;20254;-74
2024/01/01 07:43:39;;;;;;;1999.90;999.90;;;7.30;99.90;;;;;;5014177;28;20907;-74
2024/01/01 07:46:09;;;;;;;1999.90;999.90;;;7.40;99.90;;;;;;5014484;28;20161;-73
2024/01/01 07:48:35;;;;;;;1999.90;999.90;;;7.30;99.90;;;;;;5014316;28;20196;-73
2024/01/01 07:51:00;;;;;;;1999.90;999.90;;;7.30;99.90;;;;;;5013803;28;20964;-73
2024/01/01 07:53:26;;;;;;;1999.90;999.90;;;7.30;99.90;;;;;;5013191;28;20195;-73
2024/01/01 07:55:51;;;;;;;1999.90;999.90;;;7.30;99.90;;;;;;5008939;28;20179;-73
2024/01/01 07:58:17;;;;;;;1999.90;999.90;;;7.20;99.90;;;;;;5011272;28;20178;-73
2024/01/01 08:00:42;;;;;;;1999.90;999.90;;;7.20;99.90;;;;;;5014082;28;20608;-73
2024/01/01 08:03:08;;;;;;;1999.90;999.90;;;7.20;99.90;;;;;;5013815;28;20196;-73
2024/01/01 08:05:34;;;;;;;1999.90;999.90;;;7.20;99.90;;;;;;5014032;28;20209;-73
2024/01/01 08:08:00;;;;;;;1999.90;999.90;;;7.20;99.90;;;;;;5014011;28;20173;-73
2024/01/01 08:10:26;;;;;;;1999.90;999.90;;;7.20;99.90;;;;;;5013908;28;20876;-73
2024/01/01 08:12:51;;;;;;;1999.90;999.90;;;7.20;99.90;;;;;;5013742;28;20412;-73
2024/01/01 08:15:17;;;;;;;1999.90;999.90;;;7.40;99.90;;;;;;5013787;28;20211;-72
2024/01/01 08:17:43;;;;;;;1999.90;999.90;;;7.20;99.90;;;;;;5013789;28;20571;-73
2024/01/01 08:20:09;;;;;;;1999.90;999.90;;;7.50;99.90;;;;;;5013624;28;20295;-73
2024/01/01 08:22:34;;;;;;;1999.90;999.90;;;7.30;99.90;;;;;;5013547;28;20216;-73
2024/01/01 08:25:00;;;;;;;1999.90;999.90;;;7.30;99.90;;;;;;5013632;28;20888;-73
2024/01/01 08:27:25;;;;;;;1999.90;999.90;;;7.30;99.90;;;;;;5013695;28;20200;-73
2024/01/01 08:29:51;;;;;;;1999.90;999.90;;;7.30;99.90;;;;;;5013455;28;20212;-74
2024/01/01 08:32:17;;;;;;;1999.90;999.90;;;7.40;99.90;;;;;;5013253;28;20231;-73
2024/01/01 08:34:42;;;;;;;1999.90;999.90;;;7.30;99.90;;;;;;5013562;28;20172;-74
2024/01/01 08:37:08;;;;;;;1999.90;999.90;;;7.40;99.90;;;;;;5013496;28;20279;-74
2024/01/01 08:39:33;;;;;;;1999.90;999.90;;;7.50;99.90;;;;;;5013318;28;20203;-73
2024/01/01 08:41:59;;;;;;;1999.90;999.90;;;7.60;99.90;;;;;;5012468;28;20176;-74
2024/01/01 08:44:25;;;;;;;1999.90;999.90;;;7.50;99.90;;;;;;5013281;28;20196;-74
2024/01/01 08:46:50;;;;;;;1999.90;999.90;;;7.50;99.90;;;;;;5013220;28;20187;-73
2024/01/01 08:49:16;;;;;;;1999.90;999.90;;;7.50;99.90;;;;;;5013192;28;20428;-74
2024/01/01 08:51:41;;;;;;;1999.90;999.90;;;7.50;99.90;;;;;;5012099;28;20180;-74
2024/01/01 08:54:07;;;;;;;1999.90;999.90;;;7.70;99.90;;;;;;5013127;28;20186;-73
2024/01/01 08:56:33;;;;;;;1999.90;999.90;;;7.70;99.90;;;;;;5005132;28;20182;-73
2024/01/01 08:58:59;;;;;;;1999.90;999.90;;;7.90;99.90;;;;;;5013184;28;20180;-74
2024/01/01 09:01:24;;;;;;;1999.90;999.90;;;7.80;99.90;;;;;;5012770;28;20205;-74
2024/01/01 09:03:50;;;;;;;1999.90;999.90;;;7.90;99.90;;;;;;5012989;28;20408;-74
2024/01/01 09:06:15;;;;;;;1999.90;999.90;;;7.80;99.90;;;;;;5013033;28;20173;-73
2024/01/01 09:08:43;;;;;;;1999.90;999.90;;;7.80;99.90;;;;;;5012989;28;20176;-73
2024/01/01 09:11:08;;;;;;;1999.90;999.90;;;7.80;99.90;;;;;;5012981;28;20205;-74
2024/01/01 09:13:34;;;;;;;1999.90;999.90;;;7.80;99.90;;;;;;5012638;28;20412;-73
2024/01/01 09:16:01;;;;;;;1999.90;999.90;;;7.80;99.90;;;;;;5012689;28;20174;-74
2024/01/01 09:18:26;;;;;;;1999.90;999.90;;;7.90;99.90;;;;;;5013028;28;20256;-73
2024/01/01 09:20:52;;;;;;;1999.90;999.90;;;7.80;99.90;;;;;;5012672;28;20914;-74
2024/01/01 09:23:17;;;;;;;1999.90;999.90;;;7.90;99.90;;;;;;5012469;28;20172;-74
2024/01/01 09:25:43;;;;;;;1999.90;999.90;;;7.90;99.90;;;;;;5012790;28;20169;-74
2024/01/01 09:28:09;;;;;;;1999.90;999.90;;;7.90;99.90;;;;;;5012197;28;20181;-74
2024/01/01 09:30:34;;;;;;;1999.90;999.90;;;7.90;99.90;;;;;;5004125;28;20221;-74
2024/01/01 09:33:00;;;;;;;1999.90;999.90;;;8.10;99.90;;;;;;5012234;28;20181;-73
2024/01/01 09:35:25;;;;;;;1999.90;999.90;;;7.90;99.90;;;;;;5004184;28;20174;-74
2024/01/01 09:37:53;;;;;;;1999.90;999.90;;;7.90;99.90;;;;;;5012525;28;20193;-73
2024/01/01 09:40:20;;;;;;;1999.90;999.90;;;8.00;99.90;;;;;;5012176;28;20460;-73
2024/01/01 09:42:49;;;;;;;1999.90;999.90;;;8.00;99.90;;;;;;5011192;28;20400;-73
2024/01/01 09:45:15;;;;;;;1999.90;999.90;;;8.00;99.90;;;;;;4992495;28;20412;-73
2024/01/01 09:47:41;;;;;;;1999.90;999.90;;;8.00;99.90;;;;;;5006989;28;20495;-73
2024/01/01 09:50:08;;;;;;;1999.90;999.90;;;8.10;99.90;;;;;;5012059;28;20797;-73
2024/01/01 09:52:34;;;;;;;1999.90;999.90;;;8.10;99.90;;;;;;5003413;28;20417;-74
2024/01/01 09:54:59;;;;;;;1999.90;999.90;;;8.10;99.90;;;;;;5012258;28;20426;-73
2024/01/01 09:57:26;;;;;;;1999.90;999.90;;;8.10;99.90;;;;;;5012172;28;20413;-73
2024/01/01 09:59:51;;;;;;;1999.90;999.90;;;8.20;99.90;;;;;;5011962;28;20267;-73
2024/01/01 10:02:23;;;;;;;1999.90;999.90;;;8.40;99.90;;;;;;5011936;28;20408;-73
2024/01/01 10:04:48;;;;;;;1999.90;999.90;;;8.20;99.90;;;;;;5012287;28;20174;-73
2024/01/01 10:07:34;;;;;;;1999.90;999.90;;;8.20;99.90;;;;;;5008985;28;20424;-73
2024/01/01 10:10:00;;;;;;;1999.90;999.90;;;8.30;99.90;;;;;;5005586;28;20216;-73
2024/01/01 10:12:26;;;;;;;1999.90;999.90;;;8.30;99.90;;;;;;5003637;28;20419;-74
2024/01/01 10:14:53;;;;;;;1999.90;999.90;;;8.30;99.90;;;;;;5011960;28;20173;-73
2024/01/01 10:17:19;;;;;;;1999.90;999.90;;;8.30;99.90;;;;;;5011858;28;20421;-73
2024/01/01 10:19:59;;;;;;;1999.90;999.90;;;8.30;99.90;;;;;;5003633;28;20432;-73
2024/01/01 10:22:31;;;;;;;1999.90;999.90;;;8.40;99.90;;;;;;5011809;28;20264;-73
2024/01/01 10:25:11;;;;;;;1999.90;999.90;;;8.40;99.90;;;;;;5011860;28;20389;-73
2024/01/01 10:27:44;;;;;;;1999.90;999.90;;;8.40;99.90;;;;;;5011855;28;20413;-73
2024/01/01 10:30:11;;;;;;;1999.90;999.90;;;8.30;99.90;;;;;;5011500;28;20487;-73
2024/01/01 10:32:39;;;;;;;1999.90;999.90;;;8.40;99.90;;;;;;5002782;28;20800;-74
2024/01/01 10:35:05;;;;;;;1999.90;999.90;;;8.30;99.90;;;;;;5003476;28;20429;-73
2024/01/01 10:37:32;;;;;;;1999.90;999.90;;;8.30;99.90;;;;;;5009870;28;20415;-74
2024/01/01 10:40:04;;;;;;;1999.90;999.90;;;8.30;99.90;;;;;;5005107;28;20460;-73
2024/01/01 10:42:33;;;;;;;1999.90;999.90;;;8.30;99.90;;;;;;5011735;28;20509;-74
2024/01/01 10:45:03;;;;;;;1999.90;999.90;;;8.50;99.90;;;;;;5011162;28;20463;-74
2024/01/01 10:47:29;;;;;;;1999.90;999.90;;;8.50;99.90;;;;;;5011472;28;20463;-74
2024/01/01 10:50:10;;;;;;;1999.90;999.90;;;8.50;99.90;;;;;;5007364;28;20794;-73
2024/01/01 10:52:45;;;;;;;1999.90;999.90;;;8.60;99.90;;;;;;5003088;28;20821;-74
2024/01/01 10:55:39;;;;;;;1999.90;999.90;;;8.60;99.90;;;;;;5011361;28;20414;-73
2024/01/01 10:58:20;;;;;;;1999.90;999.90;;;8.80;99.90;;;;;;5011363;28;20955;-74
2024/01/01 11:01:11;;;;;;;1999.90;999.90;;;8.80;99.90;;;;;;5011162;28;20476;-74
2024/01/01 11:03:37;;;;;;;1999.90;999.90;;;8.80;99.40;;;;;;5004123;28;20418;-72
2024/01/01 11:06:31;;;;;;;1999.90;999.90;;;8.90;99.90;;;;;;5014915;28;20806;-74
2024/01/01 11:09:17;;;;;;;1999.90;999.90;;;8.90;99.90;;;;;;5014809;28;20783;-74
2024/01/01 11:11:47;;;;;;;1999.90;999.90;;;9.00;98.50;;;;;;5014343;28;20427;-73
2024/01/01 11:14:24;;;;;;;1999.90;999.90;;;8.70;97.10;;;;;;5014612;28;20413;-73
2024/01/01 11:16:51;;;;;;;1999.90;999.90;;;8.80;98.40;;;;;;5014757;28;20451;-75
2024/01/01 11:19:41;;;;;;;1999.90;999.90;;;8.70;98.50;;;;;;5011108;28;20427;-73
2024/01/01 11:22:18;;;;;;;1999.90;999.90;;;8.60;99.90;;;;;;5010380;28;20461;-73
2024/01/01 11:24:45;;;;;;;1999.90;999.90;;;8.70;99.90;;;;;;4994554;28;20409;-73
2024/01/01 11:27:47;;;;;;;1999.90;999.90;;;8.70;99.90;;;;;;4994184;28;20780;-74
2024/01/01 11:30:14;;;;;;;1999.90;999.90;;;8.90;99.90;;;;;;4962976;28;21179;-74
2024/01/01 11:32:40;;;;;;;1999.90;999.90;;;9.00;99.90;;;;;;4994402;28;20424;-73
2024/01/01 11:35:14;;;;;;;1999.90;999.90;;;9.30;99.90;;;;;;4994093;28;20414;-73
2024/01/01 11:37:42;;;;;;;1999.90;999.90;;;9.60;98.30;;;;;;4996677;28;20464;-73
2024/01/01 11:40:09;;;;;;;1999.90;999.90;;;9.60;89.00;;;;;;5013720;28;20477;-73
2024/01/01 11:42:35;;;;;;;1999.90;999.90;;;9.50;86.70;;;;;;5005067;28;20418;-73
2024/01/01 11:45:05;;;;;;;1999.90;999.90;;;9.30;92.70;;;;;;5014218;28;20787;-73
2024/01/01 11:47:31;;;;;;;1999.90;999.90;;;9.30;93.80;;;;;;5014288;28;20414;-74
2024/01/01 11:49:57;;;;;;;1999.90;999.90;;;9.10;91.70;;;;;;5012710;28;20433;-73
2024/01/01 11:52:23;;;;;;;1999.90;999.90;;;9.00;93.40;;;;;;5003508;28;20467;-74
2024/01/01 11:54:48;;;;;;;1999.90;999.90;;;9.00;97.60;;;;;;5007699;28;20183;-74
2024/01/01 11:57:16;;;;;;;1999.90;999.90;;;9.00;97.70;;;;;;5004384;28;20180;-74
2024/01/01 11:59:42;;;;;;;1999.90;999.90;;;9.00;97.50;;;;;;5013552;22;20603;-74
2024/01/01 12:02:10;;;;;;;1999.90;999.90;;;9.60;98.50;;;;;;5010946;28;20405;-73
2024/01/01 12:04:36;;;;;;;1999.90;999.90;;;8.90;97.40;;;;;;5018057;28;20233;-73
2024/01/01 12:07:02;;;;;;;1999.90;999.90;;;9.20;96.10;;;;;;5013594;28;20433;-73